Time,TemperatureF,DewpointF,PressureIn,WindDirection,WindDirectionDegrees,WindSpeedMPH,WindSpeedGustMPH,Humidity,HourlyPrecipIn,Conditions,Clouds,dailyrainin,SoftwareType,DateUTC
2013-03-30 00:07:00,52.5,40.0,30.24,ENE,76,0.0,-999.0,63,-99.99,,,0.00,weatherlink.com 1.10,2013-03-30 06:07:00,
2013-03-30 00:22:00,52.1,40.0,30.23,ENE,76,2.0,-999.0,64,-99.99,,,0.00,weatherlink.com 1.10,2013-03-30 06:22:00,
2013-03-30 00:37:00,51.4,40.0,30.23,NE,51,0.0,-999.0,65,-99.99,,,0.00,weatherlink.com 1.10,2013-03-30 06:37:00,
2013-03-30 00:52:00,51.0,40.0,30.23,NE,52,2.0,-999.0,67,-99.99,,,0.00,weatherlink.com 1.10,2013-03-30 06:52:00,
2013-03-30 01:07:00,50.9,41.0,30.23,NNW,347,3.0,-999.0,68,-99.99,,,0.00,weatherlink.com 1.10,2013-03-30 07:07:00,
2013-03-30 01:22:00,50.8,40.0,30.23,NNW,334,1.0,-999.0,67,-99.99,,,0.00,weatherlink.com 1.10,2013-03-30 07:22:00,
2013-03-30 01:37:00,50.7,40.0,30.23,NNW,334,0.0,-999.0,66,-99.99,,,0.00,weatherlink.com 1.10,2013-03-30 07:37:00,
2013-03-30 01:52:00,50.7,40.0,30.23,NNW,334,0.0,-999.0,67,-99.99,,,0.00,weatherlink.com 1.10,2013-03-30 07:52:00,
2013-03-30 02:07:00,50.6,40.0,30.22,NNW,334,0.0,-999.0,67,-99.99,,,0.00,weatherlink.com 1.10,2013-03-30 08:07:00,
2013-03-30 02:22:00,50.6,40.0,30.22,NNW,334,0.0,-999.0,67,-99.99,,,0.00,weatherlink.com 1.10,2013-03-30 08:22:00,
2013-03-30 02:37:00,50.6,40.0,30.22,NNW,334,0.0,-999.0,67,-99.99,,,0.00,weatherlink.com 1.10,2013-03-30 08:37:00,
2013-03-30 02:52:00,50.4,40.0,30.21,NNW,334,0.0,-999.0,68,-99.99,,,0.00,weatherlink.com 1.10,2013-03-30 08:52:00,
2013-03-30 03:07:00,50.3,40.0,30.21,NNW,334,0.0,-999.0,68,-99.99,,,0.00,weatherlink.com 1.10,2013-03-30 09:07:00,
2013-03-30 03:22:00,50.4,40.0,30.21,NNW,334,0.0,-999.0,68,-99.99,,,0.00,weatherlink.com 1.10,2013-03-30 09:22:00,
2013-03-30 03:37:00,50.4,41.0,30.21,NNW,334,0.0,-999.0,69,-99.99,,,0.00,weatherlink.com 1.10,2013-03-30 09:37:00,
2013-03-30 03:52:00,50.3,40.0,30.21,North,5,1.0,-999.0,68,-99.99,,,0.00,weatherlink.com 1.10,2013-03-30 09:52:00,
2013-03-30 04:07:00,50.0,41.0,30.20,ENE,61,4.0,-999.0,72,-99.99,,,0.00,weatherlink.com 1.10,2013-03-30 10:07:00,
2013-03-30 04:22:00,49.7,41.0,30.20,ENE,69,2.0,-999.0,72,-99.99,,,0.00,weatherlink.com 1.10,2013-03-30 10:22:00,
2013-03-30 04:37:00,49.4,41.0,30.21,ENE,69,0.0,-999.0,74,-99.99,,,0.00,weatherlink.com 1.10,2013-03-30 10:37:00,
2013-03-30 04:52:00,49.4,41.0,30.21,ESE,102,1.0,-999.0,74,-99.99,,,0.00,weatherlink.com 1.10,2013-03-30 10:52:00,
2013-03-30 05:07:00,49.3,41.0,30.22,East,92,5.0,-999.0,72,-99.99,,,0.00,weatherlink.com 1.10,2013-03-30 11:07:00,
2013-03-30 05:22:00,49.2,41.0,30.22,East,90,0.0,-999.0,73,-99.99,,,0.00,weatherlink.com 1.10,2013-03-30 11:22:00,
2013-03-30 05:37:00,48.5,41.0,30.22,ENE,75,0.0,-999.0,76,-99.99,,,0.00,weatherlink.com 1.10,2013-03-30 11:37:00,
2013-03-30 05:52:00,48.5,41.0,30.22,ENE,75,0.0,-999.0,74,-99.99,,,0.00,weatherlink.com 1.10,2013-03-30 11:52:00,
2013-03-30 06:07:00,48.4,40.0,30.22,East,80,3.0,-999.0,73,-99.99,,,0.00,weatherlink.com 1.10,2013-03-30 12:07:00,
2013-03-30 06:22:00,48.3,41.0,30.22,East,80,2.0,-999.0,75,-99.99,,,0.00,weatherlink.com 1.10,2013-03-30 12:22:00,
2013-03-30 06:37:00,48.7,41.0,30.23,East,83,0.0,-999.0,74,-99.99,,,0.00,weatherlink.com 1.10,2013-03-30 12:37:00,
2013-03-30 06:52:00,49.4,41.0,30.22,NE,53,3.0,-999.0,72,-99.99,,,0.00,weatherlink.com 1.10,2013-03-30 12:52:00,
2013-03-30 07:07:00,49.7,41.0,30.23,ENE,70,1.0,-999.0,73,-99.99,,,0.00,weatherlink.com 1.10,2013-03-30 13:07:00,
2013-03-30 07:22:00,50.9,41.0,30.23,ENE,75,2.0,-999.0,70,-99.99,,,0.00,weatherlink.com 1.10,2013-03-30 13:22:00,
2013-03-30 07:37:00,52.0,42.0,30.23,ESE,114,0.0,-999.0,69,-99.99,,,0.00,weatherlink.com 1.10,2013-03-30 13:37:00,
2013-03-30 07:52:00,53.3,43.0,30.23,SE,137,2.0,-999.0,67,-99.99,,,0.00,weatherlink.com 1.10,2013-03-30 13:52:00,
2013-03-30 08:07:00,54.6,43.0,30.23,SSE,148,1.0,-999.0,64,-99.99,,,0.00,weatherlink.com 1.10,2013-03-30 14:07:00,
2013-03-30 08:22:00,55.6,43.0,30.22,SSE,158,6.0,-999.0,62,-99.99,,,0.00,weatherlink.com 1.10,2013-03-30 14:22:00,
2013-03-30 08:37:00,56.8,42.0,30.22,SE,126,4.0,-999.0,59,-99.99,,,0.00,weatherlink.com 1.10,2013-03-30 14:37:00,
2013-03-30 08:52:00,57.5,44.0,30.22,SE,126,1.0,-999.0,60,-99.99,,,0.00,weatherlink.com 1.10,2013-03-30 14:52:00,
2013-03-30 09:07:00,58.2,43.0,30.22,SSE,148,2.0,-999.0,58,-99.99,,,0.00,weatherlink.com 1.10,2013-03-30 15:07:00,
2013-03-30 09:22:00,58.7,44.0,30.22,SSE,152,5.0,-999.0,59,-99.99,,,0.00,weatherlink.com 1.10,2013-03-30 15:22:00,
2013-03-30 09:37:00,59.2,44.0,30.21,SSE,150,2.0,-999.0,58,-99.99,,,0.00,weatherlink.com 1.10,2013-03-30 15:37:00,
2013-03-30 09:52:00,60.2,44.0,30.20,ESE,111,0.0,-999.0,56,-99.99,,,0.00,weatherlink.com 1.10,2013-03-30 15:52:00,
2013-03-30 10:07:00,61.4,45.0,30.20,East,89,4.0,-999.0,55,-99.99,,,0.00,weatherlink.com 1.10,2013-03-30 16:07:00,
2013-03-30 10:22:00,61.7,46.0,30.20,South,188,9.0,-999.0,56,-99.99,,,0.00,weatherlink.com 1.10,2013-03-30 16:22:00,
2013-03-30 10:37:00,62.7,47.0,30.19,SW,214,0.0,-999.0,57,-99.99,,,0.00,weatherlink.com 1.10,2013-03-30 16:37:00,
2013-03-30 10:55:00,64.0,47.0,30.18,SE,140,14.0,-999.0,54,-99.99,,,0.00,weatherlink.com 1.10,2013-03-30 16:55:00,
2013-03-30 11:07:00,64.1,47.0,30.18,SE,134,6.0,-999.0,55,-99.99,,,0.00,weatherlink.com 1.10,2013-03-30 17:07:00,
2013-03-30 11:22:00,65.2,49.0,30.17,WSW,252,11.0,-999.0,56,-99.99,,,0.00,weatherlink.com 1.10,2013-03-30 17:22:00,
2013-03-30 11:37:00,65.3,49.0,30.16,SSE,158,6.0,-999.0,56,-99.99,,,0.00,weatherlink.com 1.10,2013-03-30 17:37:00,
2013-03-30 11:52:00,65.6,49.0,30.16,WSW,248,6.0,-999.0,55,-99.99,,,0.00,weatherlink.com 1.10,2013-03-30 17:52:00,
2013-03-30 12:08:00,66.9,50.0,30.15,WSW,251,12.0,-999.0,54,-99.99,,,0.00,weatherlink.com 1.10,2013-03-30 18:08:00,
2013-03-30 12:23:00,67.1,49.0,30.14,WNW,298,4.0,-999.0,53,-99.99,,,0.00,weatherlink.com 1.10,2013-03-30 18:23:00,
2013-03-30 12:38:00,66.9,50.0,30.13,WSW,246,7.0,-999.0,55,-99.99,,,0.00,weatherlink.com 1.10,2013-03-30 18:38:00,
2013-03-30 12:53:00,67.4,50.0,30.13,WNW,292,6.0,-999.0,53,-99.99,,,0.00,weatherlink.com 1.10,2013-03-30 18:53:00,
2013-03-30 13:08:00,67.0,50.0,30.12,SSW,200,0.0,-999.0,54,-99.99,,,0.00,weatherlink.com 1.10,2013-03-30 19:08:00,
2013-03-30 13:23:00,66.7,50.0,30.11,SW,236,6.0,-999.0,55,-99.99,,,0.00,weatherlink.com 1.10,2013-03-30 19:23:00,
2013-03-30 13:38:00,66.6,50.0,30.11,SW,227,6.0,-999.0,56,-99.99,,,0.00,weatherlink.com 1.10,2013-03-30 19:38:00,
2013-03-30 13:53:00,60.0,52.0,30.13,SW,215,8.0,-999.0,76,-99.99,,,0.02,weatherlink.com 1.10,2013-03-30 19:53:00,
2013-03-30 14:08:00,58.2,54.0,30.13,SW,225,1.0,-999.0,86,-99.99,,,0.04,weatherlink.com 1.10,2013-03-30 20:08:00,
2013-03-30 14:23:00,57.3,54.0,30.13,SW,217,4.0,-999.0,88,-99.99,,,0.07,weatherlink.com 1.10,2013-03-30 20:23:00,
2013-03-30 14:38:00,57.0,55.0,30.13,SW,231,3.0,-999.0,91,-99.99,,,0.10,weatherlink.com 1.10,2013-03-30 20:38:00,
2013-03-30 14:53:00,56.8,55.0,30.14,SW,219,7.0,-999.0,92,-99.99,,,0.13,weatherlink.com 1.10,2013-03-30 20:53:00,
2013-03-30 15:08:00,56.7,55.0,30.13,SW,232,0.0,-999.0,93,-99.99,,,0.18,weatherlink.com 1.10,2013-03-30 21:08:00,
2013-03-30 15:23:00,56.7,55.0,30.13,SW,232,0.0,-999.0,94,-99.99,,,0.21,weatherlink.com 1.10,2013-03-30 21:23:00,
2013-03-30 15:38:00,56.6,55.0,30.12,SW,214,0.0,-999.0,94,-99.99,,,0.24,weatherlink.com 1.10,2013-03-30 21:38:00,
2013-03-30 15:53:00,56.4,55.0,30.12,SW,214,0.0,-999.0,94,-99.99,,,0.25,weatherlink.com 1.10,2013-03-30 21:53:00,
2013-03-30 16:08:00,56.4,55.0,30.11,SW,214,0.0,-999.0,93,-99.99,,,0.26,weatherlink.com 1.10,2013-03-30 22:08:00,
2013-03-30 16:23:00,56.6,55.0,30.11,SW,214,0.0,-999.0,93,-99.99,,,0.27,weatherlink.com 1.10,2013-03-30 22:23:00,
2013-03-30 16:38:00,56.8,55.0,30.11,SW,214,0.0,-999.0,94,-99.99,,,0.28,weatherlink.com 1.10,2013-03-30 22:38:00,
2013-03-30 16:53:00,56.9,55.0,30.10,South,171,0.0,-999.0,94,-99.99,,,0.29,weatherlink.com 1.10,2013-03-30 22:53:00,
2013-03-30 17:08:00,56.6,55.0,30.10,SSE,165,2.0,-999.0,94,-99.99,,,0.29,weatherlink.com 1.10,2013-03-30 23:08:00,
2013-03-30 17:23:00,56.3,55.0,30.09,SSE,148,0.0,-999.0,95,-99.99,,,0.30,weatherlink.com 1.10,2013-03-30 23:23:00,
2013-03-30 17:38:00,56.2,55.0,30.09,SSE,148,0.0,-999.0,95,-99.99,,,0.31,weatherlink.com 1.10,2013-03-30 23:38:00,
2013-03-30 17:53:00,56.1,55.0,30.09,SSE,148,0.0,-999.0,95,-99.99,,,0.32,weatherlink.com 1.10,2013-03-30 23:53:00,
2013-03-30 18:08:00,56.0,55.0,30.09,SSE,148,0.0,-999.0,95,-99.99,,,0.33,weatherlink.com 1.10,2013-03-31 00:08:00,
2013-03-30 18:23:00,55.9,55.0,30.07,East,88,0.0,-999.0,95,-99.99,,,0.34,weatherlink.com 1.10,2013-03-31 00:23:00,
2013-03-30 18:38:00,55.8,54.0,30.08,East,88,2.0,-999.0,95,-99.99,,,0.35,weatherlink.com 1.10,2013-03-31 00:38:00,
2013-03-30 18:53:00,55.6,54.0,30.07,East,89,1.0,-999.0,95,-99.99,,,0.36,weatherlink.com 1.10,2013-03-31 00:53:00,
2013-03-30 19:08:00,55.6,54.0,30.09,South,178,2.0,-999.0,95,-99.99,,,0.36,weatherlink.com 1.10,2013-03-31 01:08:00,
2013-03-30 19:23:00,55.5,54.0,30.08,SSE,163,0.0,-999.0,96,-99.99,,,0.37,weatherlink.com 1.10,2013-03-31 01:23:00,
2013-03-30 19:38:00,55.5,54.0,30.08,SSE,163,2.0,-999.0,96,-99.99,,,0.38,weatherlink.com 1.10,2013-03-31 01:38:00,
2013-03-30 19:53:00,55.4,54.0,30.08,SSE,164,0.0,-999.0,96,-99.99,,,0.38,weatherlink.com 1.10,2013-03-31 01:53:00,
2013-03-30 20:08:00,55.4,54.0,30.08,SSE,164,0.0,-999.0,96,-99.99,,,0.39,weatherlink.com 1.10,2013-03-31 02:08:00,
2013-03-30 20:23:00,55.3,54.0,30.07,SSE,164,0.0,-999.0,96,-99.99,,,0.40,weatherlink.com 1.10,2013-03-31 02:23:00,
2013-03-30 20:53:00,55.3,54.0,30.08,SSW,211,3.0,-999.0,96,-99.99,,,0.41,weatherlink.com 1.10,2013-03-31 02:53:00,
2013-03-30 21:08:00,55.3,54.0,30.07,SE,146,2.0,-999.0,96,-99.99,,,0.41,weatherlink.com 1.10,2013-03-31 03:08:00,
2013-03-30 21:24:00,55.3,54.0,30.07,SSE,153,1.0,-999.0,96,-99.99,,,0.41,weatherlink.com 1.10,2013-03-31 03:24:00,
2013-03-30 21:54:00,55.2,54.0,30.07,SSW,194,5.0,-999.0,96,-99.99,,,0.42,weatherlink.com 1.10,2013-03-31 03:54:00,
2013-03-30 22:09:00,55.2,54.0,30.06,South,175,4.0,-999.0,96,-99.99,,,0.43,weatherlink.com 1.10,2013-03-31 04:09:00,
2013-03-30 22:24:00,55.3,54.0,30.06,SSE,165,0.0,-999.0,96,-99.99,,,0.43,weatherlink.com 1.10,2013-03-31 04:24:00,
2013-03-30 22:39:00,55.2,54.0,30.05,SSE,165,1.0,-999.0,96,-99.99,,,0.43,weatherlink.com 1.10,2013-03-31 04:39:00,
2013-03-30 22:55:00,55.1,54.0,30.04,South,174,1.0,-999.0,96,-99.99,,,0.44,weatherlink.com 1.10,2013-03-31 04:55:00,
2013-03-30 23:09:00,55.1,54.0,30.04,SSE,165,2.0,-999.0,96,-99.99,,,0.44,weatherlink.com 1.10,2013-03-31 05:09:00,
2013-03-30 23:24:00,55.1,54.0,30.04,SSE,165,5.0,-999.0,96,-99.99,,,0.44,weatherlink.com 1.10,2013-03-31 05:24:00,
2013-03-30 23:39:00,55.2,54.0,30.04,South,189,5.0,-999.0,96,-99.99,,,0.45,weatherlink.com 1.10,2013-03-31 05:39:00,
2013-03-30 23:54:00,55.2,54.0,30.03,SSE,160,2.0,-999.0,96,-99.99,,,0.45,weatherlink.com 1.10,2013-03-31 05:54:00,